Time;durP1;ratioP1;P1;durP2;ratioP2;P2;SDS_P1;SDS_P2;PMS_P1;PMS_P2;Temp;Humidity;BMP_temperature;BMP_pressure;BME280_temperature;BME280_humidity;BME280_pressure;Samples;Min_cycle;Max_cycle;Signal;HPM_P1;HPM_P2
2024/01/25 00:01:32;;;;;;;11.80;7.20;;;;;;;-5.64;100.00;100377.30;109179;1254;58729;-55
2024/01/25 00:04:00;;;;;;;15.70;8.10;;;;;;;-5.63;100.00;100374.02;109161;1254;72671;-56
2024/01/25 00:06:27;;;;;;;14.10;7.60;;;;;;;-5.64;100.00;100360.52;109164;1253;67693;-56
2024/01/25 00:08:55;;;;;;;15.80;8.70;;;;;;;-5.65;100.00;100360.56;109163;1255;72751;-55
2024/01/25 00:11:23;;;;;;;13.70;6.80;;;;;;;-5.67;100.00;100351.17;109170;1254;60663;-54
2024/01/25 00:13:51;;;;;;;13.70;7.40;;;;;;;-5.68;100.00;100353.27;109285;1253;58822;-54
2024/01/25 00:16:19;;;;;;;17.00;8.40;;;;;;;-5.70;100.00;100350.83;109176;1254;73846;-60
2024/01/25 00:18:46;;;;;;;15.80;7.60;;;;;;;-5.71;100.00;100342.77;109209;1253;66069;-54
2024/01/25 00:21:14;;;;;;;15.70;7.70;;;;;;;-5.72;100.00;100336.73;109173;1254;72735;-55
2024/01/25 00:23:42;;;;;;;15.10;7.70;;;;;;;-5.74;100.00;100327.33;109346;1253;59625;-55
2024/01/25 00:26:09;;;;;;;16.20;7.70;;;;;;;-5.74;100.00;100320.56;109189;1254;60026;-55
2024/01/25 00:28:37;;;;;;;16.90;9.30;;;;;;;-5.75;100.00;100316.23;109189;1253;73895;-59
2024/01/25 00:31:04;;;;;;;15.60;8.00;;;;;;;-5.77;100.00;100312.91;109267;1253;66204;-54
2024/01/25 00:33:32;;;;;;;19.10;8.30;;;;;;;-5.76;100.00;100304.27;109270;1253;71411;-55
2024/01/25 00:36:00;;;;;;;16.80;8.50;;;;;;;-5.75;100.00;100301.14;109178;1254;59667;-54
2024/01/25 00:38:28;;;;;;;20.20;9.30;;;;;;;-5.73;100.00;100295.80;109215;1254;60221;-60
2024/01/25 00:40:56;;;;;;;15.10;7.50;;;;;;;-5.72;100.00;100292.17;109249;1253;73998;-54
2024/01/25 00:43:24;;;;;;;16.10;7.90;;;;;;;-5.74;100.00;100289.90;109349;1252;67024;-55
2024/01/25 00:45:52;;;;;;;18.10;9.20;;;;;;;-5.76;100.00;100282.94;109328;1254;72750;-56
2024/01/25 00:48:20;;;;;;;19.80;10.20;;;;;;;-5.77;100.00;100273.69;109188;1254;59675;-54
2024/01/25 00:50:48;;;;;;;20.40;10.10;;;;;;;-5.79;100.00;100265.80;109184;1253;58841;-54
2024/01/25 00:53:17;;;;;;;17.20;8.40;;;;;;;-5.78;100.00;100258.84;109188;1254;72628;-54
2024/01/25 00:55:45;;;;;;;19.80;10.00;;;;;;;-5.77;100.00;100253.00;109284;1253;65639;-55
2024/01/25 00:58:13;;;;;;;16.70;8.70;;;;;;;-5.78;100.00;100247.50;109164;1253;70489;-55
2024/01/25 01:00:41;;;;;;;15.90;8.30;;;;;;;-5.79;100.00;100247.24;109235;1253;59681;-60
2024/01/25 01:03:10;;;;;;;21.20;9.40;;;;;;;-5.78;100.00;100257.31;109180;1253;60523;-54
2024/01/25 01:05:38;;;;;;;20.30;8.90;;;;;;;-5.79;100.00;100260.74;109243;1251;72620;-54
2024/01/25 01:08:06;;;;;;;17.20;8.40;;;;;;;-5.78;100.00;100256.33;109200;1254;66859;-55
2024/01/25 01:10:34;;;;;;;18.80;10.20;;;;;;;-5.77;100.00;100247.77;109310;1253;72980;-56
2024/01/25 01:13:02;;;;;;;17.90;8.20;;;;;;;-5.77;100.00;100239.84;109115;1254;60924;-55
2024/01/25 01:15:30;;;;;;;16.40;9.10;;;;;;;-5.79;100.00;100232.98;109234;1253;58789;-56
2024/01/25 01:17:58;;;;;;;17.70;9.00;;;;;;;-5.81;100.00;100235.27;109207;1254;73848;-54
2024/01/25 01:20:25;;;;;;;16.70;8.70;;;;;;;-5.79;100.00;100238.05;109319;1252;66958;-55
2024/01/25 01:22:54;;;;;;;16.60;9.50;;;;;;;-5.77;100.00;100237.13;109249;1254;72814;-60
2024/01/25 01:25:21;;;;;;;16.10;8.30;;;;;;;-5.73;100.00;100230.66;109178;1253;61514;-54
2024/01/25 01:27:49;;;;;;;18.40;9.00;;;;;;;-5.70;100.00;100218.09;109226;1253;58802;-55
2024/01/25 01:30:17;;;;;;;19.60;9.20;;;;;;;-5.69;100.00;100212.48;109205;1254;74000;-55
2024/01/25 01:32:45;;;;;;;15.70;8.20;;;;;;;-5.66;100.00;100208.77;109168;1254;65883;-57
2024/01/25 01:35:13;;;;;;;16.00;8.60;;;;;;;-5.64;100.00;100215.30;109206;1254;70444;-54
2024/01/25 01:37:41;;;;;;;20.10;9.90;;;;;;;-5.62;100.00;100211.80;109275;1253;61032;-55
2024/01/25 01:40:09;;;;;;;18.40;9.80;;;;;;;-5.58;100.00;100209.08;109134;1254;60128;-55
2024/01/25 01:42:36;;;;;;;19.50;10.30;;;;;;;-5.57;100.00;100198.16;109309;1251;74373;-55
2024/01/25 01:45:04;;;;;;;18.60;9.00;;;;;;;-5.51;100.00;100195.63;109170;1254;66874;-60
2024/01/25 01:47:32;;;;;;;21.10;11.10;;;;;;;-5.50;100.00;100209.29;109264;1254;73188;-56
2024/01/25 01:50:00;;;;;;;20.00;9.20;;;;;;;-5.50;100.00;100211.34;109346;1254;61056;-54
2024/01/25 01:52:28;;;;;;;20.10;9.20;;;;;;;-5.49;100.00;100206.34;109106;1253;59044;-54
2024/01/25 01:54:56;;;;;;;19.50;10.30;;;;;;;-5.47;100.00;100201.81;109393;1253;72643;-55
2024/01/25 01:57:23;;;;;;;20.10;8.80;;;;;;;-5.46;100.00;100214.15;109061;1254;67458;-54
2024/01/25 01:59:51;;;;;;;18.90;9.80;;;;;;;-5.45;100.00;100203.42;109203;1254;72690;-55
2024/01/25 02:02:19;;;;;;;17.80;7.90;;;;;;;-5.42;100.00;100209.70;109177;1254;60946;-55
2024/01/25 02:04:46;;;;;;;18.80;9.20;;;;;;;-5.40;100.00;100209.27;109184;1251;58790;-54
2024/01/25 02:07:14;;;;;;;18.50;8.50;;;;;;;-5.41;100.00;100192.88;109155;1254;73972;-55
2024/01/25 02:09:42;;;;;;;14.10;7.90;;;;;;;-5.41;100.00;100189.84;109254;1253;66119;-54
2024/01/25 02:12:09;;;;;;;16.40;9.20;;;;;;;-5.41;100.00;100192.04;109248;1254;71447;-54
2024/01/25 02:14:37;;;;;;;17.90;9.20;;;;;;;-5.41;100.00;100188.52;109109;1254;59970;-54
2024/01/25 02:17:05;;;;;;;16.60;8.40;;;;;;;-5.42;100.00;100190.20;109184;1253;60086;-54
2024/01/25 02:19:32;;;;;;;16.10;7.80;;;;;;;-5.42;100.00;100188.70;109231;1253;73930;-55
2024/01/25 02:22:00;;;;;;;19.00;9.80;;;;;;;-5.41;100.00;100180.36;109168;1255;64992;-54
2024/01/25 02:24:28;;;;;;;15.30;7.70;;;;;;;-5.42;100.00;100177.19;108988;1254;72738;-54
2024/01/25 02:26:56;;;;;;;14.30;7.40;;;;;;;-5.42;100.00;100169.39;109172;1253;60867;-54
2024/01/25 02:29:23;;;;;;;16.20;7.30;;;;;;;-5.41;100.00;100164.45;109121;1253;60080;-56
2024/01/25 02:31:51;;;;;;;14.10;7.80;;;;;;;-5.43;100.00;100158.42;109231;1252;74252;-54
2024/01/25 02:34:20;;;;;;;15.50;8.00;;;;;;;-5.43;100.00;100154.19;109164;1254;67062;-54
2024/01/25 02:36:48;;;;;;;12.50;7.10;;;;;;;-5.46;100.00;100147.94;109222;1253;71358;-54
2024/01/25 02:39:16;;;;;;;12.10;6.40;;;;;;;-5.50;100.00;100140.86;109170;1254;59995;-60
2024/01/25 02:41:44;;;;;;;14.60;7.20;;;;;;;-5.57;100.00;100131.63;109242;1253;58788;-54
2024/01/25 02:44:12;;;;;;;13.60;6.20;;;;;;;-5.63;100.00;100125.17;109196;1254;74138;-55
2024/01/25 02:46:39;;;;;;;13.70;7.40;;;;;;;-5.73;100.00;100125.16;109184;1253;67275;-54
2024/01/25 02:49:07;;;;;;;14.00;7.60;;;;;;;-5.78;100.00;100119.02;109234;1253;71415;-54
2024/01/25 02:51:35;;;;;;;13.10;7.20;;;;;;;-5.84;100.00;100116.13;109221;1254;59853;-59
2024/01/25 02:54:02;;;;;;;13.60;6.40;;;;;;;-5.88;100.00;100111.95;109263;1253;59191;-54
2024/01/25 02:56:34;;;;;;;12.70;6.90;;;;;;;-5.91;100.00;100106.52;109252;1253;72629;-55
2024/01/25 02:59:02;;;;;;;10.90;6.50;;;;;;;-5.93;100.00;100104.27;109253;1253;66024;-54
2024/01/25 03:01:38;;;;;;;12.40;6.60;;;;;;;-5.92;100.00;100095.56;109199;1254;72710;-55
2024/01/25 03:04:06;;;;;;;11.30;6.10;;;;;;;-5.91;100.00;100100.60;109264;1254;59634;-54
2024/01/25 03:06:33;;;;;;;12.90;6.30;;;;;;;-5.92;100.00;100102.86;109283;1253;59315;-54
2024/01/25 03:09:04;;;;;;;13.20;7.00;;;;;;;-5.91;100.00;100098.26;109322;1254;72670;-57
2024/01/25 03:11:32;;;;;;;11.40;6.30;;;;;;;-5.91;100.00;100096.52;109478;1253;68302;-53
2024/01/25 03:13:59;;;;;;;9.70;5.60;;;;;;;-5.90;100.00;100095.84;109242;1253;71090;-54
2024/01/25 03:16:27;;;;;;;13.90;7.00;;;;;;;-5.91;100.00;100096.02;109272;1253;60945;-54
2024/01/25 03:18:55;;;;;;;11.20;5.50;;;;;;;-5.89;100.00;100093.24;109241;1253;60124;-54
2024/01/25 03:21:22;;;;;;;12.40;5.90;;;;;;;-5.86;100.00;100091.05;109234;1253;73853;-54
2024/01/25 03:23:51;;;;;;;12.30;6.40;;;;;;;-5.85;100.00;100086.41;109254;1253;67180;-54
2024/01/25 03:26:18;;;;;;;14.80;7.10;;;;;;;-5.82;100.00;100084.25;109058;1253;71862;-54
2024/01/25 03:28:46;;;;;;;14.00;7.60;;;;;;;-5.81;100.00;100088.55;109246;1253;60940;-54
2024/01/25 03:31:14;;;;;;;12.60;6.80;;;;;;;-5.78;100.00;100099.05;109180;1253;60086;-54
2024/01/25 03:33:41;;;;;;;10.70;6.20;;;;;;;-5.74;100.00;100093.45;109253;1253;73877;-55
2024/01/25 03:36:13;;;;;;;12.00;6.90;;;;;;;-5.74;100.00;100091.38;109235;1253;66308;-55
2024/01/25 03:38:40;;;;;;;12.10;5.80;;;;;;;-5.75;100.00;100096.34;109206;1254;72725;-55
2024/01/25 03:41:09;;;;;;;13.90;6.90;;;;;;;-5.78;100.00;100092.45;109255;1253;59795;-60
2024/01/25 03:43:36;;;;;;;12.70;6.50;;;;;;;-5.82;100.00;100088.62;109221;1253;58145;-56
2024/01/25 03:46:12;;;;;;;13.60;7.00;;;;;;;-5.86;100.00;100080.40;109224;1253;73893;-54
2024/01/25 03:48:39;;;;;;;13.90;6.80;;;;;;;-5.90;100.00;100081.11;109265;1253;67118;-55
2024/01/25 03:51:08;;;;;;;11.40;6.20;;;;;;;-5.93;100.00;100082.34;109217;1253;70891;-54
2024/01/25 03:53:35;;;;;;;13.10;7.30;;;;;;;-5.95;100.00;100075.13;109178;1253;60396;-55
2024/01/25 03:56:03;;;;;;;13.00;6.90;;;;;;;-5.95;100.00;100071.25;109372;1253;58835;-55
2024/01/25 03:58:31;;;;;;;11.40;6.20;;;;;;;-5.92;100.00;100070.73;109273;1253;74050;-56
2024/01/25 04:00:59;;;;;;;16.30;7.60;;;;;;;-5.90;100.00;100067.38;109309;1253;67561;-55
2024/01/25 04:03:27;;;;;;;12.60;7.30;;;;;;;-5.88;100.00;100071.00;109227;1254;72811;-56
2024/01/25 04:05:55;;;;;;;13.30;7.30;;;;;;;-5.90;100.00;100066.23;109230;1253;61123;-54
2024/01/25 04:08:22;;;;;;;11.90;6.90;;;;;;;-5.90;100.00;100063.48;109279;1253;60022;-55
2024/01/25 04:10:50;;;;;;;15.10;7.50;;;;;;;-5.86;100.00;100057.73;109267;1253;73953;-55
2024/01/25 04:13:18;;;;;;;13.10;7.50;;;;;;;-5.85;100.00;100055.30;109483;1253;67376;-55
2024/01/25 04:15:45;;;;;;;14.30;7.50;;;;;;;-5.82;100.00;100055.15;109216;1253;72695;-55
2024/01/25 04:18:13;;;;;;;14.20;8.00;;;;;;;-5.83;100.00;100046.71;109243;1253;59966;-54
2024/01/25 04:20:41;;;;;;;15.70;7.60;;;;;;;-5.81;100.00;100045.94;109266;1253;58820;-55
2024/01/25 04:23:09;;;;;;;17.30;9.00;;;;;;;-5.78;100.00;100043.40;109292;1253;74003;-54
2024/01/25 04:25:36;;;;;;;16.80;8.80;;;;;;;-5.78;100.00;100035.27;109242;1254;66946;-55
2024/01/25 04:28:04;;;;;;;13.80;7.80;;;;;;;-5.75;100.00;100029.82;109355;1253;72707;-54
2024/01/25 04:30:32;;;;;;;19.10;8.80;;;;;;;-5.71;100.00;100022.36;109243;1253;60942;-55
2024/01/25 04:33:00;;;;;;;17.10;9.60;;;;;;;-5.66;100.00;100022.90;109243;1253;58837;-54
2024/01/25 04:35:28;;;;;;;16.20;9.70;;;;;;;-5.61;100.00;100020.96;109240;1253;73892;-59
2024/01/25 04:37:56;;;;;;;19.00;9.10;;;;;;;-5.57;100.00;100017.86;109242;1253;66135;-55
2024/01/25 04:40:24;;;;;;;18.40;8.80;;;;;;;-5.54;100.00;100015.66;109235;1252;71456;-55
2024/01/25 04:42:51;;;;;;;17.10;8.50;;;;;;;-5.51;100.00;100024.31;109236;1253;59660;-56
2024/01/25 04:45:19;;;;;;;21.00;11.00;;;;;;;-5.51;100.00;100014.11;109292;1253;58785;-55
2024/01/25 04:47:47;;;;;;;15.60;8.50;;;;;;;-5.50;100.00;100019.63;109207;1253;76414;-55
2024/01/25 04:50:14;;;;;;;18.60;8.70;;;;;;;-5.45;100.00;100017.04;109280;1253;67064;-54
2024/01/25 04:52:42;;;;;;;17.30;8.80;;;;;;;-5.44;100.00;100010.84;109301;1253;72743;-54
2024/01/25 04:55:10;;;;;;;15.40;9.20;;;;;;;-5.42;100.00;100004.80;109249;1253;59776;-55
2024/01/25 04:57:38;;;;;;;17.70;8.80;;;;;;;-5.41;100.00;100002.35;109194;1254;59132;-57
2024/01/25 05:00:06;;;;;;;17.10;10.00;;;;;;;-5.40;100.00;99998.06;109297;1253;73890;-56
2024/01/25 05:02:34;;;;;;;16.00;8.30;;;;;;;-5.37;100.00;99996.58;109284;1252;67022;-56
2024/01/25 05:05:01;;;;;;;18.50;9.40;;;;;;;-5.34;100.00;99988.13;109234;1254;71836;-54
2024/01/25 05:07:29;;;;;;;19.60;10.30;;;;;;;-5.32;100.00;99987.96;109395;1253;60915;-54
2024/01/25 05:09:57;;;;;;;18.20;8.90;;;;;;;-5.30;100.00;99984.11;109321;1253;60112;-55
2024/01/25 05:12:25;;;;;;;15.00;9.00;;;;;;;-5.29;100.00;99980.16;109448;1253;73058;-56
2024/01/25 05:14:53;;;;;;;17.80;8.60;;;;;;;-5.27;100.00;99976.32;109266;1253;65844;-55
2024/01/25 05:17:20;;;;;;;16.40;8.90;;;;;;;-5.26;100.00;99972.74;109205;1253;70753;-55
2024/01/25 05:19:48;;;;;;;17.40;9.80;;;;;;;-5.28;100.00;99971.30;109243;1253;59441;-55
2024/01/25 05:22:16;;;;;;;17.90;9.20;;;;;;;-5.29;100.00;99969.02;109296;1253;59170;-55
2024/01/25 05:24:46;;;;;;;18.10;9.10;;;;;;;-5.31;100.00;99968.46;109236;1253;72987;-55
2024/01/25 05:27:14;;;;;;;18.50;9.70;;;;;;;-5.29;100.00;99965.63;109241;1253;67070;-57
2024/01/25 05:29:41;;;;;;;14.80;8.40;;;;;;;-5.26;100.00;99962.89;109265;1253;73277;-55
2024/01/25 05:32:09;;;;;;;16.00;9.20;;;;;;;-5.23;100.00;99964.27;109252;1253;59666;-55
2024/01/25 05:34:36;;;;;;;17.80;10.20;;;;;;;-5.24;100.00;99963.30;109271;1253;60202;-54
2024/01/25 05:37:04;;;;;;;18.10;8.30;;;;;;;-5.24;100.00;99958.06;109263;1253;73971;-54
2024/01/25 05:39:32;;;;;;;14.50;8.20;;;;;;;-5.22;100.00;99956.59;109235;1253;65786;-54
2024/01/25 05:42:00;;;;;;;16.40;8.40;;;;;;;-5.21;100.00;99957.83;109280;1253;72735;-56
2024/01/25 05:44:28;;;;;;;18.10;8.90;;;;;;;-5.17;100.00;99957.11;109247;1253;59596;-55
2024/01/25 05:46:55;;;;;;;16.60;8.40;;;;;;;-5.13;100.00;99949.63;109288;1253;60137;-54
2024/01/25 05:49:23;;;;;;;18.80;9.70;;;;;;;-5.08;100.00;99948.65;109214;1253;73890;-56
2024/01/25 05:51:51;;;;;;;17.70;9.80;;;;;;;-5.01;100.00;99943.66;109271;1253;65728;-54
2024/01/25 05:54:18;;;;;;;40.90;29.00;;;;;;;-4.93;100.00;99951.98;109259;1253;72740;-55
2024/01/25 05:56:47;;;;;;;19.70;10.80;;;;;;;-4.85;100.00;99945.70;109273;1253;59568;-55
2024/01/25 05:59:14;;;;;;;18.60;11.10;;;;;;;-4.78;100.00;99941.73;109274;1253;60216;-60
2024/01/25 06:01:42;;;;;;;17.10;9.80;;;;;;;-4.71;100.00;99935.39;109188;1255;72637;-55
2024/01/25 06:04:09;;;;;;;20.20;11.80;;;;;;;-4.65;100.00;99928.20;109421;1253;65674;-54
2024/01/25 06:06:37;;;;;;;23.30;14.50;;;;;;;-4.56;100.00;99926.98;109438;1253;72746;-54
2024/01/25 06:09:05;;;;;;;16.40;9.40;;;;;;;-4.48;100.00;99925.84;109220;1253;58558;-55
2024/01/25 06:11:40;;;;;;;16.90;9.10;;;;;;;-4.41;100.00;99919.83;109260;1253;58836;-55
2024/01/25 06:14:08;;;;;;;15.60;9.10;;;;;;;-4.38;100.00;99915.17;109262;1253;72607;-55
2024/01/25 06:16:36;;;;;;;15.00;8.50;;;;;;;-4.35;100.00;99909.77;109463;1253;65265;-55
2024/01/25 06:19:04;;;;;;;16.20;8.10;;;;;;;-4.32;100.00;99906.84;109260;1252;71812;-55
2024/01/25 06:21:33;;;;;;;17.80;8.90;;;;;;;-4.27;100.00;99909.39;109219;1253;58579;-56
2024/01/25 06:24:02;;;;;;;18.80;10.50;;;;;;;-4.24;100.00;99909.27;109267;1253;58819;-57
2024/01/25 06:26:30;;;;;;;20.70;11.30;;;;;;;-4.22;100.00;99904.66;109270;1253;73000;-55
2024/01/25 06:28:57;;;;;;;18.00;9.10;;;;;;;-4.18;100.00;99895.59;109282;1254;65627;-56
2024/01/25 06:31:25;;;;;;;14.30;8.30;;;;;;;-4.13;100.00;99890.04;109270;1253;71771;-56
2024/01/25 06:33:53;;;;;;;16.90;9.30;;;;;;;-4.08;100.00;99888.50;109259;1253;59361;-56
2024/01/25 06:36:22;;;;;;;18.50;9.00;;;;;;;-4.05;100.00;99886.65;109282;1253;58281;-54
2024/01/25 06:38:49;;;;;;;17.00;8.90;;;;;;;-4.03;100.00;99879.22;109286;1252;73922;-55
2024/01/25 06:41:17;;;;;;;18.70;9.40;;;;;;;-4.01;100.00;99875.00;109246;1253;65631;-60
2024/01/25 06:43:45;;;;;;;16.80;8.90;;;;;;;-3.98;100.00;99871.77;109222;1254;72753;-54
2024/01/25 06:46:12;;;;;;;16.90;9.40;;;;;;;-3.95;100.00;99868.48;109253;1253;59343;-55
2024/01/25 06:48:40;;;;;;;17.90;9.20;;;;;;;-3.91;100.00;99867.56;109257;1253;58847;-54
2024/01/25 06:51:08;;;;;;;18.30;10.50;;;;;;;-3.87;100.00;99862.77;109245;1253;72994;-54
2024/01/25 06:53:35;;;;;;;23.10;10.10;;;;;;;-3.85;100.00;99863.10;109295;1252;67322;-61
2024/01/25 06:56:03;;;;;;;17.00;9.70;;;;;;;-3.79;100.00;99863.20;109236;1253;70912;-55
2024/01/25 06:58:31;;;;;;;19.50;10.50;;;;;;;-3.73;100.00;99863.80;109249;1253;58308;-55
2024/01/25 07:00:59;;;;;;;19.60;10.70;;;;;;;-3.65;100.00;99864.98;109266;1253;60135;-55
2024/01/25 07:03:27;;;;;;;18.10;9.80;;;;;;;-3.57;100.00;99864.65;109339;1252;73950;-58
2024/01/25 07:05:55;;;;;;;21.00;10.90;;;;;;;-3.48;100.00;99865.08;109241;1253;65957;-54
2024/01/25 07:08:24;;;;;;;33.10;16.70;;;;;;;-3.42;100.00;99854.27;109263;1253;71457;-54
2024/01/25 07:10:51;;;;;;;27.00;13.30;;;;;;;-3.37;100.00;99849.36;109247;1253;59982;-54
2024/01/25 07:13:20;;;;;;;22.80;11.70;;;;;;;-3.30;100.00;99849.21;109280;1253;59314;-54
2024/01/25 07:15:48;;;;;;;19.90;10.70;;;;;;;-3.23;100.00;99845.34;109253;1253;73923;-57
2024/01/25 07:18:17;;;;;;;21.00;12.30;;;;;;;-3.14;100.00;99844.42;109264;1252;66505;-54
2024/01/25 07:20:45;;;;;;;22.40;11.20;;;;;;;-3.03;100.00;99846.17;109321;1253;74142;-54
2024/01/25 07:23:13;;;;;;;20.00;11.60;;;;;;;-2.92;100.00;99842.01;109238;1253;60960;-54
2024/01/25 07:25:40;;;;;;;17.90;10.30;;;;;;;-2.83;100.00;99843.27;109219;1253;60084;-54
2024/01/25 07:28:08;;;;;;;19.20;11.20;;;;;;;-2.74;100.00;99841.08;109174;1253;76218;-59
2024/01/25 07:30:36;;;;;;;19.30;11.60;;;;;;;-2.61;100.00;99843.63;109206;1253;71009;-56
2024/01/25 07:33:04;;;;;;;20.90;11.40;;;;;;;-2.51;100.00;99846.30;109142;1253;75052;-56
2024/01/25 07:35:32;;;;;;;18.20;11.00;;;;;;;-2.48;100.00;99846.75;109148;1253;61220;-54
2024/01/25 07:38:00;;;;;;;18.80;11.40;;;;;;;-2.44;100.00;99842.19;109166;1253;61932;-54
2024/01/25 07:40:27;;;;;;;18.50;10.40;;;;;;;-2.42;100.00;99844.41;109153;1253;75102;-54
2024/01/25 07:42:55;;;;;;;19.90;11.20;;;;;;;-2.40;100.00;99840.52;109185;1253;68890;-54
2024/01/25 07:45:23;;;;;;;16.40;10.60;;;;;;;-2.38;100.00;99840.41;109182;1253;75652;-54
2024/01/25 07:47:51;;;;;;;19.00;11.10;;;;;;;-2.36;100.00;99838.73;109144;1253;62136;-54
2024/01/25 07:50:31;;;;;;;17.80;9.90;;;;;;;-2.35;100.00;99834.54;109143;1253;62223;-55
2024/01/25 07:53:00;;;;;;;16.20;9.40;;;;;;;-2.32;100.00;99832.09;109211;1253;74969;-56
2024/01/25 07:55:29;;;;;;;18.70;9.80;;;;;;;-2.29;100.00;99828.02;109138;1253;68864;-55
2024/01/25 07:57:58;;;;;;;15.50;9.40;;;;;;;-2.25;100.00;99830.64;109301;1253;71478;-56
2024/01/25 08:00:25;;;;;;;18.20;9.90;;;;;;;-2.18;100.00;99834.52;109236;1252;60276;-54
2024/01/25 08:02:53;;;;;;;17.40;10.00;;;;;;;-2.06;100.00;99835.19;109258;1253;60035;-56
2024/01/25 08:05:20;;;;;;;20.40;10.40;;;;;;;-1.93;100.00;99834.02;109245;1253;72465;-56
2024/01/25 08:07:50;;;;;;;15.40;8.90;;;;;;;-1.76;100.00;99832.98;109272;1253;70763;-55
2024/01/25 08:10:18;;;;;;;15.90;9.30;;;;;;;-1.62;100.00;99829.36;109244;1254;72732;-61
2024/01/25 08:12:47;;;;;;;17.70;9.60;;;;;;;-1.51;100.00;99824.09;109354;1253;58681;-58
2024/01/25 08:15:25;;;;;;;17.40;9.40;;;;;;;-1.44;100.00;99823.03;109239;1253;58905;-55
2024/01/25 08:17:53;;;;;;;16.90;9.80;;;;;;;-1.42;100.00;99820.69;109255;1253;74932;-56
2024/01/25 08:20:21;;;;;;;16.30;9.50;;;;;;;-1.42;100.00;99820.83;109289;1253;69268;-55
2024/01/25 08:22:49;;;;;;;15.40;8.90;;;;;;;-1.42;100.00;99816.73;109196;1252;73129;-55
2024/01/25 08:25:16;;;;;;;15.90;9.70;;;;;;;-1.42;100.00;99815.52;109241;1256;59442;-55
2024/01/25 08:27:44;;;;;;;14.60;8.80;;;;;;;-1.41;100.00;99809.34;109256;1253;60248;-54
2024/01/25 08:30:12;;;;;;;16.60;10.10;;;;;;;-1.39;100.00;99810.61;109242;1253;73989;-55
2024/01/25 08:32:40;;;;;;;17.70;9.40;;;;;;;-1.40;100.00;99803.13;109248;1253;69119;-61
2024/01/25 08:35:08;;;;;;;15.60;9.00;;;;;;;-1.40;100.00;99797.37;109210;1253;73942;-55
2024/01/25 08:37:37;;;;;;;15.20;8.80;;;;;;;-1.39;100.00;99794.41;109238;1256;59461;-55
2024/01/25 08:40:06;;;;;;;15.30;9.00;;;;;;;-1.36;100.00;99789.86;109275;1253;61436;-54
2024/01/25 08:42:34;;;;;;;14.90;8.60;;;;;;;-1.31;100.00;99783.21;109252;1252;73927;-55
2024/01/25 08:45:03;;;;;;;18.90;10.10;;;;;;;-1.28;100.00;99775.27;109204;1253;68838;-56
2024/01/25 08:47:31;;;;;;;15.10;8.90;;;;;;;-1.22;100.00;99771.20;109275;1252;72721;-55
2024/01/25 08:49:59;;;;;;;17.10;8.90;;;;;;;-1.15;100.00;99766.50;109249;1253;60400;-56
2024/01/25 08:52:27;;;;;;;16.50;9.90;;;;;;;-1.08;100.00;99763.16;109255;1253;62123;-55
2024/01/25 08:54:55;;;;;;;15.40;9.60;;;;;;;-1.01;100.00;99752.02;109241;1252;75291;-58
2024/01/25 08:57:23;;;;;;;15.60;8.80;;;;;;;-0.89;100.00;99748.18;109207;1253;65692;-56
2024/01/25 08:59:50;;;;;;;15.80;10.50;;;;;;;-0.77;100.00;99741.41;109225;1253;75061;-56
2024/01/25 09:02:18;;;;;;;16.50;10.20;;;;;;;-0.66;100.00;99737.70;109283;1255;59309;-53
2024/01/25 09:04:46;;;;;;;16.20;8.60;;;;;;;-0.56;100.00;99732.52;109290;1253;61111;-56
2024/01/25 09:07:14;;;;;;;17.00;9.50;;;;;;;-0.46;100.00;99727.99;109200;1253;75966;-55
2024/01/25 09:09:42;;;;;;;14.80;8.30;;;;;;;-0.36;100.00;99720.37;109294;1253;68210;-56
2024/01/25 09:12:11;;;;;;;15.30;8.30;;;;;;;-0.29;100.00;99716.15;109228;1253;72733;-56
2024/01/25 09:14:39;;;;;;;11.60;7.40;;;;;;;-0.25;100.00;99707.45;109212;1253;62840;-56
2024/01/25 09:17:07;;;;;;;13.10;7.40;;;;;;;-0.22;100.00;99701.63;109261;1253;62443;-63
2024/01/25 09:19:35;;;;;;;17.10;8.80;;;;;;;-0.18;100.00;99698.39;109242;1253;76461;-56
2024/01/25 09:22:04;;;;;;;10.90;6.60;;;;;;;-0.13;100.00;99691.83;109279;1253;66538;-56
2024/01/25 09:24:34;;;;;;;10.20;6.20;;;;;;;-0.11;100.00;99689.58;109213;1253;72761;-54
2024/01/25 09:27:02;;;;;;;11.90;7.20;;;;;;;-0.08;100.00;99684.89;109258;1253;63314;-57
2024/01/25 09:29:30;;;;;;;10.60;6.30;;;;;;;-0.06;100.00;99682.00;109176;1254;58801;-58
2024/01/25 09:31:58;;;;;;;11.20;6.00;;;;;;;0.00;100.00;99679.40;109261;1253;75021;-56
2024/01/25 09:34:26;;;;;;;10.60;6.30;;;;;;;0.06;100.00;99672.92;109217;1253;68296;-56
2024/01/25 09:36:54;;;;;;;10.10;6.50;;;;;;;0.12;100.00;99670.59;109222;1252;75235;-57
2024/01/25 09:39:22;;;;;;;9.90;6.20;;;;;;;0.17;100.00;99666.90;109207;1253;63348;-56
2024/01/25 09:41:50;;;;;;;11.10;6.90;;;;;;;0.21;100.00;99654.70;109186;1253;61084;-57
2024/01/25 09:44:18;;;;;;;11.20;6.60;;;;;;;0.28;100.00;99656.05;109153;1253;73978;-55
2024/01/25 09:46:45;;;;;;;9.30;6.10;;;;;;;0.35;100.00;99652.33;109272;1253;69730;-54
2024/01/25 09:49:14;;;;;;;8.80;6.20;;;;;;;0.38;100.00;99647.11;109240;1253;73841;-54
2024/01/25 09:51:42;;;;;;;10.20;5.80;;;;;;;0.44;100.00;99639.92;109150;1253;61894;-56
2024/01/25 09:54:10;;;;;;;10.20;6.10;;;;;;;0.53;100.00;99633.17;109259;1253;58884;-57
2024/01/25 09:56:37;;;;;;;10.10;6.20;;;;;;;0.61;100.00;99629.45;109402;1253;73721;-55
2024/01/25 09:59:05;;;;;;;10.70;6.20;;;;;;;0.70;100.00;99628.39;109002;1253;69389;-58
2024/01/25 10:01:34;;;;;;;8.70;5.60;;;;;;;0.80;100.00;99623.45;108991;1253;73957;-55
2024/01/25 10:04:02;;;;;;;8.20;5.20;;;;;;;0.87;100.00;99621.85;109173;1253;60108;-55
2024/01/25 10:06:29;;;;;;;10.10;6.10;;;;;;;0.89;100.00;99616.54;109125;1253;61510;-57
2024/01/25 10:08:58;;;;;;;9.20;5.70;;;;;;;0.91;100.00;99613.39;109219;1252;77031;-56
2024/01/25 10:11:28;;;;;;;10.50;6.20;;;;;;;0.93;100.00;99611.67;109122;1253;69300;-57
2024/01/25 10:13:57;;;;;;;8.50;5.30;;;;;;;0.97;100.00;99607.26;109221;1254;73329;-58
2024/01/25 10:16:25;;;;;;;21.40;13.70;;;;;;;1.01;100.00;99603.77;108992;1261;61510;-57
2024/01/25 10:18:53;;;;;;;14.30;9.70;;;;;;;1.03;100.00;99601.03;109234;1255;58808;-58
2024/01/25 10:21:21;;;;;;;23.90;14.20;;;;;;;1.06;100.00;99601.86;109246;1252;75935;-59
2024/01/25 10:23:51;;;;;;;21.10;15.00;;;;;;;1.04;100.00;99598.26;108989;1253;68313;-59
2024/01/25 10:26:19;;;;;;;10.50;6.50;;;;;;;1.01;100.00;99591.34;109240;1254;74863;-59
2024/01/25 10:28:51;;;;;;;14.40;9.00;;;;;;;0.95;100.00;99592.92;109123;1253;64301;-60
2024/01/25 10:31:25;;;;;;;12.20;7.10;;;;;;;0.91;100.00;99586.73;109109;1253;62197;-60
2024/01/25 10:33:53;;;;;;;8.50;5.60;;;;;;;0.89;100.00;99582.80;109271;1253;72657;-59
2024/01/25 10:36:21;;;;;;;9.70;6.40;;;;;;;0.89;100.00;99579.05;109163;1253;69308;-60
2024/01/25 10:38:52;;;;;;;10.60;7.30;;;;;;;0.91;100.00;99575.74;109204;1252;73706;-60
2024/01/25 10:41:20;;;;;;;10.90;6.20;;;;;;;0.97;100.00;99568.94;109212;1253;61819;-65
2024/01/25 10:43:48;;;;;;;8.40;5.70;;;;;;;1.01;100.00;99567.77;109210;1253;58762;-60
2024/01/25 10:46:16;;;;;;;14.00;8.00;;;;;;;0.99;100.00;99565.15;109262;1253;74914;-61
2024/01/25 10:48:44;;;;;;;16.90;8.80;;;;;;;1.00;100.00;99563.71;109399;1252;66866;-61
2024/01/25 10:51:14;;;;;;;17.00;9.00;;;;;;;1.02;100.00;99562.33;109249;1253;75284;-61
2024/01/25 10:53:43;;;;;;;14.10;8.20;;;;;;;1.04;100.00;99562.46;109169;1253;61902;-63
2024/01/25 10:56:11;;;;;;;9.30;6.10;;;;;;;1.09;100.00;99560.50;109277;1253;60982;-61
2024/01/25 10:58:40;;;;;;;9.00;6.00;;;;;;;1.10;100.00;99557.33;109148;1253;75926;-61
2024/01/25 11:01:12;;;;;;;8.20;4.80;;;;;;;1.11;100.00;99553.42;109187;1253;70079;-61
2024/01/25 11:03:46;;;;;;;7.40;4.70;;;;;;;1.11;100.00;99552.55;109171;1253;72725;-62
2024/01/25 11:06:14;;;;;;;8.60;5.40;;;;;;;1.12;100.00;99550.23;109206;1254;61004;-61
2024/01/25 11:08:42;;;;;;;8.10;4.80;;;;;;;1.12;100.00;99546.12;109371;1253;62527;-61
2024/01/25 11:11:13;;;;;;;8.00;5.20;;;;;;;1.16;100.00;99541.35;109385;1253;75773;-61